sensor_id;sensor_type;location;lat;lon;timestamp;temperature;humidity
20492;DHT22;10404;51.468;6.762;2024-03-22T00:00:09;11.60;68.90
20492;DHT22;10404;51.468;6.762;2024-03-22T00:02:37;11.50;69.00
20492;DHT22;10404;51.468;6.762;2024-03-22T00:05:03;11.60;69.00
20492;DHT22;10404;51.468;6.762;2024-03-22T00:07:29;11.50;69.00
20492;DHT22;10404;51.468;6.762;2024-03-22T00:09:54;11.50;69.00
20492;DHT22;10404;51.468;6.762;2024-03-22T00:12:20;11.50;69.10
20492;DHT22;10404;51.468;6.762;2024-03-22T00:14:45;11.50;69.20
20492;DHT22;10404;51.468;6.762;2024-03-22T00:17:11;11.50;69.20
20492;DHT22;10404;51.468;6.762;2024-03-22T00:19:37;11.50;69.30
20492;DHT22;10404;51.468;6.762;2024-03-22T00:22:02;11.50;69.30
20492;DHT22;10404;51.468;6.762;2024-03-22T00:24:28;11.50;69.30
20492;DHT22;10404;51.468;6.762;2024-03-22T00:26:53;11.50;69.40
20492;DHT22;10404;51.468;6.762;2024-03-22T00:29:19;11.50;69.30
20492;DHT22;10404;51.468;6.762;2024-03-22T00:31:44;11.50;69.30
20492;DHT22;10404;51.468;6.762;2024-03-22T00:34:10;11.50;69.40
20492;DHT22;10404;51.468;6.762;2024-03-22T00:36:35;11.40;69.40
20492;DHT22;10404;51.468;6.762;2024-03-22T00:39:01;11.40;69.50
20492;DHT22;10404;51.468;6.762;2024-03-22T00:41:27;11.40;69.50
20492;DHT22;10404;51.468;6.762;2024-03-22T00:43:52;11.40;69.50
20492;DHT22;10404;51.468;6.762;2024-03-22T00:46:18;11.40;69.60
20492;DHT22;10404;51.468;6.762;2024-03-22T00:48:43;11.40;69.60
20492;DHT22;10404;51.468;6.762;2024-03-22T00:51:09;11.40;69.60
20492;DHT22;10404;51.468;6.762;2024-03-22T00:53:35;11.30;69.70
20492;DHT22;10404;51.468;6.762;2024-03-22T00:56:00;11.30;69.70
20492;DHT22;10404;51.468;6.762;2024-03-22T00:58:27;11.40;69.70
20492;DHT22;10404;51.468;6.762;2024-03-22T01:00:53;11.30;69.70
20492;DHT22;10404;51.468;6.762;2024-03-22T01:03:19;11.30;69.80
20492;DHT22;10404;51.468;6.762;2024-03-22T01:05:45;11.30;69.80
20492;DHT22;10404;51.468;6.762;2024-03-22T01:08:11;11.30;69.80
20492;DHT22;10404;51.468;6.762;2024-03-22T01:10:36;11.30;69.80
20492;DHT22;10404;51.468;6.762;2024-03-22T01:13:02;11.30;69.90
20492;DHT22;10404;51.468;6.762;2024-03-22T01:15:27;11.30;70.00
20492;DHT22;10404;51.468;6.762;2024-03-22T01:17:53;11.30;70.00
20492;DHT22;10404;51.468;6.762;2024-03-22T01:20:19;11.20;70.00
20492;DHT22;10404;51.468;6.762;2024-03-22T01:22:44;11.20;69.90
20492;DHT22;10404;51.468;6.762;2024-03-22T01:25:10;11.20;70.10
20492;DHT22;10404;51.468;6.762;2024-03-22T01:27:35;11.20;70.10
20492;DHT22;10404;51.468;6.762;2024-03-22T01:30:02;11.20;70.10
20492;DHT22;10404;51.468;6.762;2024-03-22T01:32:27;11.10;70.10
20492;DHT22;10404;51.468;6.762;2024-03-22T01:34:53;11.10;70.20
20492;DHT22;10404;51.468;6.762;2024-03-22T01:37:18;11.10;70.30
20492;DHT22;10404;51.468;6.762;2024-03-22T01:39:44;11.10;70.30
20492;DHT22;10404;51.468;6.762;2024-03-22T01:42:09;11.10;70.40
20492;DHT22;10404;51.468;6.762;2024-03-22T01:44:35;11.10;70.30
20492;DHT22;10404;51.468;6.762;2024-03-22T01:47:01;11.10;70.40
20492;DHT22;10404;51.468;6.762;2024-03-22T01:49:27;11.10;70.50
20492;DHT22;10404;51.468;6.762;2024-03-22T01:51:53;11.10;70.40
20492;DHT22;10404;51.468;6.762;2024-03-22T01:54:20;11.10;70.40
20492;DHT22;10404;51.468;6.762;2024-03-22T01:56:46;11.10;70.50
20492;DHT22;10404;51.468;6.762;2024-03-22T01:59:12;11.10;70.50
20492;DHT22;10404;51.468;6.762;2024-03-22T02:01:38;11.10;70.60
20492;DHT22;10404;51.468;6.762;2024-03-22T02:04:04;11.10;70.50
20492;DHT22;10404;51.468;6.762;2024-03-22T02:06:30;11.10;70.70
20492;DHT22;10404;51.468;6.762;2024-03-22T02:08:57;11.10;70.60
20492;DHT22;10404;51.468;6.762;2024-03-22T02:11:23;11.00;70.70
20492;DHT22;10404;51.468;6.762;2024-03-22T02:13:48;11.00;70.70
20492;DHT22;10404;51.468;6.762;2024-03-22T02:16:14;11.10;70.80
20492;DHT22;10404;51.468;6.762;2024-03-22T02:18:40;11.10;70.80
20492;DHT22;10404;51.468;6.762;2024-03-22T02:21:05;11.00;70.80
20492;DHT22;10404;51.468;6.762;2024-03-22T02:23:35;11.00;70.80
20492;DHT22;10404;51.468;6.762;2024-03-22T02:26:01;11.00;70.80
20492;DHT22;10404;51.468;6.762;2024-03-22T02:28:27;11.00;70.90
20492;DHT22;10404;51.468;6.762;2024-03-22T02:30:53;11.00;70.80
20492;DHT22;10404;51.468;6.762;2024-03-22T02:33:19;11.00;70.80
20492;DHT22;10404;51.468;6.762;2024-03-22T02:35:48;11.00;70.90
20492;DHT22;10404;51.468;6.762;2024-03-22T02:38:13;11.00;70.90
20492;DHT22;10404;51.468;6.762;2024-03-22T02:40:39;11.00;70.90
20492;DHT22;10404;51.468;6.762;2024-03-22T02:43:05;11.00;70.90
20492;DHT22;10404;51.468;6.762;2024-03-22T02:45:31;11.00;70.90
20492;DHT22;10404;51.468;6.762;2024-03-22T02:47:56;11.00;71.10
20492;DHT22;10404;51.468;6.762;2024-03-22T02:50:22;11.00;71.10
20492;DHT22;10404;51.468;6.762;2024-03-22T02:52:50;10.90;71.20
20492;DHT22;10404;51.468;6.762;2024-03-22T02:55:16;11.00;71.20
20492;DHT22;10404;51.468;6.762;2024-03-22T02:57:42;10.90;71.10
20492;DHT22;10404;51.468;6.762;2024-03-22T03:00:08;10.90;71.20
20492;DHT22;10404;51.468;6.762;2024-03-22T03:02:33;10.90;71.20
20492;DHT22;10404;51.468;6.762;2024-03-22T03:04:59;10.90;71.30
20492;DHT22;10404;51.468;6.762;2024-03-22T03:07:25;10.90;71.20
20492;DHT22;10404;51.468;6.762;2024-03-22T03:09:51;10.90;71.30
20492;DHT22;10404;51.468;6.762;2024-03-22T03:12:17;10.90;71.30
20492;DHT22;10404;51.468;6.762;2024-03-22T03:14:42;10.90;71.30
20492;DHT22;10404;51.468;6.762;2024-03-22T03:17:08;10.90;71.40
20492;DHT22;10404;51.468;6.762;2024-03-22T03:19:33;10.90;71.40
20492;DHT22;10404;51.468;6.762;2024-03-22T03:21:59;10.90;71.40
20492;DHT22;10404;51.468;6.762;2024-03-22T03:24:25;10.90;71.40
20492;DHT22;10404;51.468;6.762;2024-03-22T03:26:50;10.80;71.40
20492;DHT22;10404;51.468;6.762;2024-03-22T03:29:16;10.80;71.50
20492;DHT22;10404;51.468;6.762;2024-03-22T03:31:41;10.80;71.40
20492;DHT22;10404;51.468;6.762;2024-03-22T03:34:07;10.80;71.40
20492;DHT22;10404;51.468;6.762;2024-03-22T03:36:32;10.80;71.40
20492;DHT22;10404;51.468;6.762;2024-03-22T03:38:58;10.80;71.50
20492;DHT22;10404;51.468;6.762;2024-03-22T03:41:23;10.80;71.50
20492;DHT22;10404;51.468;6.762;2024-03-22T03:43:49;10.80;71.50
20492;DHT22;10404;51.468;6.762;2024-03-22T03:46:15;10.80;71.50
20492;DHT22;10404;51.468;6.762;2024-03-22T03:48:40;10.80;71.60
20492;DHT22;10404;51.468;6.762;2024-03-22T03:51:06;10.70;71.60
20492;DHT22;10404;51.468;6.762;2024-03-22T03:53:31;10.70;71.70
20492;DHT22;10404;51.468;6.762;2024-03-22T03:55:57;10.70;71.70
20492;DHT22;10404;51.468;6.762;2024-03-22T03:58:22;10.70;71.70
20492;DHT22;10404;51.468;6.762;2024-03-22T04:00:48;10.70;71.80
20492;DHT22;10404;51.468;6.762;2024-03-22T04:03:14;10.70;71.80
20492;DHT22;10404;51.468;6.762;2024-03-22T04:05:40;10.70;71.90
20492;DHT22;10404;51.468;6.762;2024-03-22T04:08:05;10.70;71.90
20492;DHT22;10404;51.468;6.762;2024-03-22T04:10:31;10.60;71.90
20492;DHT22;10404;51.468;6.762;2024-03-22T04:12:57;10.60;71.90
20492;DHT22;10404;51.468;6.762;2024-03-22T04:15:22;10.60;71.90
20492;DHT22;10404;51.468;6.762;2024-03-22T04:17:48;10.60;72.00
20492;DHT22;10404;51.468;6.762;2024-03-22T04:20:13;10.60;71.90
20492;DHT22;10404;51.468;6.762;2024-03-22T04:22:39;10.60;72.00
20492;DHT22;10404;51.468;6.762;2024-03-22T04:25:05;10.60;72.00
20492;DHT22;10404;51.468;6.762;2024-03-22T04:27:37;10.60;72.10
20492;DHT22;10404;51.468;6.762;2024-03-22T04:30:02;10.60;72.10
20492;DHT22;10404;51.468;6.762;2024-03-22T04:32:28;10.60;72.10
20492;DHT22;10404;51.468;6.762;2024-03-22T04:34:54;10.60;72.20
20492;DHT22;10404;51.468;6.762;2024-03-22T04:37:20;10.50;72.20
20492;DHT22;10404;51.468;6.762;2024-03-22T04:39:46;10.50;72.30
20492;DHT22;10404;51.468;6.762;2024-03-22T04:42:12;10.50;72.20
20492;DHT22;10404;51.468;6.762;2024-03-22T04:44:37;10.50;72.20
20492;DHT22;10404;51.468;6.762;2024-03-22T04:47:03;10.50;72.20
20492;DHT22;10404;51.468;6.762;2024-03-22T04:49:29;10.50;72.20
20492;DHT22;10404;51.468;6.762;2024-03-22T04:51:54;10.50;72.20
20492;DHT22;10404;51.468;6.762;2024-03-22T04:54:20;10.50;72.30
20492;DHT22;10404;51.468;6.762;2024-03-22T04:56:45;10.50;72.30
20492;DHT22;10404;51.468;6.762;2024-03-22T04:59:11;10.50;72.40
20492;DHT22;10404;51.468;6.762;2024-03-22T05:01:36;10.50;72.40
20492;DHT22;10404;51.468;6.762;2024-03-22T05:04:02;10.40;72.50
20492;DHT22;10404;51.468;6.762;2024-03-22T05:06:27;10.50;72.50
20492;DHT22;10404;51.468;6.762;2024-03-22T05:08:53;10.40;72.50
20492;DHT22;10404;51.468;6.762;2024-03-22T05:11:19;10.40;72.50
20492;DHT22;10404;51.468;6.762;2024-03-22T05:13:44;10.40;72.60
20492;DHT22;10404;51.468;6.762;2024-03-22T05:16:10;10.40;72.60
20492;DHT22;10404;51.468;6.762;2024-03-22T05:18:36;10.40;72.50
20492;DHT22;10404;51.468;6.762;2024-03-22T05:21:02;10.40;72.60
20492;DHT22;10404;51.468;6.762;2024-03-22T05:23:28;10.40;72.60
20492;DHT22;10404;51.468;6.762;2024-03-22T05:25:53;10.40;72.60
20492;DHT22;10404;51.468;6.762;2024-03-22T05:28:19;10.40;72.60
20492;DHT22;10404;51.468;6.762;2024-03-22T05:30:45;10.40;72.60
20492;DHT22;10404;51.468;6.762;2024-03-22T05:33:11;10.40;72.60
20492;DHT22;10404;51.468;6.762;2024-03-22T05:35:36;10.40;72.70
20492;DHT22;10404;51.468;6.762;2024-03-22T05:38:03;10.40;72.70
20492;DHT22;10404;51.468;6.762;2024-03-22T05:40:29;10.40;72.70
20492;DHT22;10404;51.468;6.762;2024-03-22T05:42:54;10.40;72.70
20492;DHT22;10404;51.468;6.762;2024-03-22T05:45:20;10.40;72.80
20492;DHT22;10404;51.468;6.762;2024-03-22T05:47:46;10.40;72.70
20492;DHT22;10404;51.468;6.762;2024-03-22T05:50:12;10.40;72.70
20492;DHT22;10404;51.468;6.762;2024-03-22T05:52:37;10.40;72.90
20492;DHT22;10404;51.468;6.762;2024-03-22T05:55:03;10.40;72.90
20492;DHT22;10404;51.468;6.762;2024-03-22T05:57:29;10.40;72.90
20492;DHT22;10404;51.468;6.762;2024-03-22T05:59:55;10.30;73.00
20492;DHT22;10404;51.468;6.762;2024-03-22T06:02:20;10.40;73.00
20492;DHT22;10404;51.468;6.762;2024-03-22T06:04:46;10.40;73.00
20492;DHT22;10404;51.468;6.762;2024-03-22T06:07:12;10.30;73.00
20492;DHT22;10404;51.468;6.762;2024-03-22T06:09:39;10.40;73.20
20492;DHT22;10404;51.468;6.762;2024-03-22T06:12:15;10.30;73.10
20492;DHT22;10404;51.468;6.762;2024-03-22T06:14:41;10.40;73.10
20492;DHT22;10404;51.468;6.762;2024-03-22T06:17:10;10.40;73.20
20492;DHT22;10404;51.468;6.762;2024-03-22T06:19:36;10.30;73.20
20492;DHT22;10404;51.468;6.762;2024-03-22T06:22:02;10.30;73.20
20492;DHT22;10404;51.468;6.762;2024-03-22T06:24:28;10.40;73.20
20492;DHT22;10404;51.468;6.762;2024-03-22T06:26:54;10.40;73.30
20492;DHT22;10404;51.468;6.762;2024-03-22T06:29:19;10.40;73.30
20492;DHT22;10404;51.468;6.762;2024-03-22T06:31:45;10.40;73.30
20492;DHT22;10404;51.468;6.762;2024-03-22T06:34:10;10.40;73.30
20492;DHT22;10404;51.468;6.762;2024-03-22T06:36:36;10.40;73.40
20492;DHT22;10404;51.468;6.762;2024-03-22T06:39:02;10.40;73.50
20492;DHT22;10404;51.468;6.762;2024-03-22T06:41:32;10.40;73.50
20492;DHT22;10404;51.468;6.762;2024-03-22T06:43:58;10.40;73.60
20492;DHT22;10404;51.468;6.762;2024-03-22T06:46:23;10.40;73.50
20492;DHT22;10404;51.468;6.762;2024-03-22T06:48:50;10.40;73.60
20492;DHT22;10404;51.468;6.762;2024-03-22T06:51:16;10.40;73.60
20492;DHT22;10404;51.468;6.762;2024-03-22T06:53:42;10.40;73.70
20492;DHT22;10404;51.468;6.762;2024-03-22T06:56:07;10.40;73.70
20492;DHT22;10404;51.468;6.762;2024-03-22T06:58:38;10.50;73.80
20492;DHT22;10404;51.468;6.762;2024-03-22T07:01:03;10.50;73.70
20492;DHT22;10404;51.468;6.762;2024-03-22T07:03:29;10.40;73.80
20492;DHT22;10404;51.468;6.762;2024-03-22T07:05:55;10.50;73.80
20492;DHT22;10404;51.468;6.762;2024-03-22T07:08:20;10.50;73.90
20492;DHT22;10404;51.468;6.762;2024-03-22T07:10:46;10.50;74.10
20492;DHT22;10404;51.468;6.762;2024-03-22T07:13:12;10.50;74.10
20492;DHT22;10404;51.468;6.762;2024-03-22T07:15:37;10.50;74.30
20492;DHT22;10404;51.468;6.762;2024-03-22T07:18:03;10.50;74.00
20492;DHT22;10404;51.468;6.762;2024-03-22T07:20:30;10.60;74.00
20492;DHT22;10404;51.468;6.762;2024-03-22T07:22:56;10.60;74.30
20492;DHT22;10404;51.468;6.762;2024-03-22T07:25:21;10.60;74.40
20492;DHT22;10404;51.468;6.762;2024-03-22T07:27:47;10.60;75.00
20492;DHT22;10404;51.468;6.762;2024-03-22T07:30:14;10.60;74.50
20492;DHT22;10404;51.468;6.762;2024-03-22T07:32:40;10.60;75.40
20492;DHT22;10404;51.468;6.762;2024-03-22T07:35:06;10.70;75.30
20492;DHT22;10404;51.468;6.762;2024-03-22T07:37:32;10.70;75.30
20492;DHT22;10404;51.468;6.762;2024-03-22T07:39:59;10.70;76.00
20492;DHT22;10404;51.468;6.762;2024-03-22T07:42:25;10.70;75.90
20492;DHT22;10404;51.468;6.762;2024-03-22T07:44:50;10.80;75.90
20492;DHT22;10404;51.468;6.762;2024-03-22T07:47:16;10.80;75.80
20492;DHT22;10404;51.468;6.762;2024-03-22T07:49:42;10.80;75.80
20492;DHT22;10404;51.468;6.762;2024-03-22T07:52:07;10.90;75.70
20492;DHT22;10404;51.468;6.762;2024-03-22T07:54:33;10.90;75.90
20492;DHT22;10404;51.468;6.762;2024-03-22T07:56:58;10.90;76.00
20492;DHT22;10404;51.468;6.762;2024-03-22T07:59:24;11.00;75.70
20492;DHT22;10404;51.468;6.762;2024-03-22T08:01:50;11.00;75.80
20492;DHT22;10404;51.468;6.762;2024-03-22T08:04:16;11.10;75.70
20492;DHT22;10404;51.468;6.762;2024-03-22T08:06:41;11.10;75.40
20492;DHT22;10404;51.468;6.762;2024-03-22T08:09:07;11.10;75.60
20492;DHT22;10404;51.468;6.762;2024-03-22T08:11:33;11.10;75.60
20492;DHT22;10404;51.468;6.762;2024-03-22T08:13:58;11.20;75.50
20492;DHT22;10404;51.468;6.762;2024-03-22T08:16:29;11.30;75.30
20492;DHT22;10404;51.468;6.762;2024-03-22T08:18:55;11.30;75.40
20492;DHT22;10404;51.468;6.762;2024-03-22T08:21:22;11.30;75.30
20492;DHT22;10404;51.468;6.762;2024-03-22T08:23:47;11.40;75.20
20492;DHT22;10404;51.468;6.762;2024-03-22T08:26:13;11.40;75.10
20492;DHT22;10404;51.468;6.762;2024-03-22T08:28:38;11.40;75.00
20492;DHT22;10404;51.468;6.762;2024-03-22T08:31:05;11.40;75.10
20492;DHT22;10404;51.468;6.762;2024-03-22T08:33:31;11.40;75.00
20492;DHT22;10404;51.468;6.762;2024-03-22T08:35:56;11.50;74.80
20492;DHT22;10404;51.468;6.762;2024-03-22T08:38:22;11.50;74.70
20492;DHT22;10404;51.468;6.762;2024-03-22T08:40:50;11.50;74.50
20492;DHT22;10404;51.468;6.762;2024-03-22T08:43:15;11.60;74.30
20492;DHT22;10404;51.468;6.762;2024-03-22T08:45:41;11.70;74.20
20492;DHT22;10404;51.468;6.762;2024-03-22T08:48:07;11.70;73.90
20492;DHT22;10404;51.468;6.762;2024-03-22T08:50:34;11.70;73.90
20492;DHT22;10404;51.468;6.762;2024-03-22T08:52:59;11.70;73.80
20492;DHT22;10404;51.468;6.762;2024-03-22T08:55:28;11.80;73.70
20492;DHT22;10404;51.468;6.762;2024-03-22T08:57:54;11.90;73.70
20492;DHT22;10404;51.468;6.762;2024-03-22T09:00:20;11.90;73.40
20492;DHT22;10404;51.468;6.762;2024-03-22T09:02:45;11.90;73.20
20492;DHT22;10404;51.468;6.762;2024-03-22T09:05:11;11.90;73.10
20492;DHT22;10404;51.468;6.762;2024-03-22T09:07:36;12.00;72.90
20492;DHT22;10404;51.468;6.762;2024-03-22T09:10:02;12.00;72.70
20492;DHT22;10404;51.468;6.762;2024-03-22T09:12:28;12.10;72.40
20492;DHT22;10404;51.468;6.762;2024-03-22T09:14:53;12.30;72.40
20492;DHT22;10404;51.468;6.762;2024-03-22T09:17:19;12.30;72.20
20492;DHT22;10404;51.468;6.762;2024-03-22T09:19:44;12.50;71.90
20492;DHT22;10404;51.468;6.762;2024-03-22T09:22:10;12.50;71.50
20492;DHT22;10404;51.468;6.762;2024-03-22T09:24:36;12.60;71.60
20492;DHT22;10404;51.468;6.762;2024-03-22T09:27:02;12.70;71.50
20492;DHT22;10404;51.468;6.762;2024-03-22T09:29:29;12.80;71.20
20492;DHT22;10404;51.468;6.762;2024-03-22T09:31:55;13.00;70.70
20492;DHT22;10404;51.468;6.762;2024-03-22T09:34:20;13.00;70.40
20492;DHT22;10404;51.468;6.762;2024-03-22T09:36:46;13.00;70.40
20492;DHT22;10404;51.468;6.762;2024-03-22T09:39:11;13.10;70.40
20492;DHT22;10404;51.468;6.762;2024-03-22T09:41:42;13.10;70.40
20492;DHT22;10404;51.468;6.762;2024-03-22T09:44:13;13.10;69.90
20492;DHT22;10404;51.468;6.762;2024-03-22T09:46:43;13.10;70.00
20492;DHT22;10404;51.468;6.762;2024-03-22T09:49:10;13.10;70.20
20492;DHT22;10404;51.468;6.762;2024-03-22T09:51:39;13.10;70.00
20492;DHT22;10404;51.468;6.762;2024-03-22T09:54:07;13.20;70.10
20492;DHT22;10404;51.468;6.762;2024-03-22T09:56:34;13.20;70.20
20492;DHT22;10404;51.468;6.762;2024-03-22T09:59:00;13.20;70.20
20492;DHT22;10404;51.468;6.762;2024-03-22T10:01:26;13.30;70.40
20492;DHT22;10404;51.468;6.762;2024-03-22T10:03:52;13.30;70.30
20492;DHT22;10404;51.468;6.762;2024-03-22T10:06:18;13.30;70.30
20492;DHT22;10404;51.468;6.762;2024-03-22T10:08:44;13.30;70.10
20492;DHT22;10404;51.468;6.762;2024-03-22T10:11:10;13.40;70.40
20492;DHT22;10404;51.468;6.762;2024-03-22T10:13:36;13.40;70.30
20492;DHT22;10404;51.468;6.762;2024-03-22T10:16:01;13.50;70.30
20492;DHT22;10404;51.468;6.762;2024-03-22T10:18:27;13.50;70.30
20492;DHT22;10404;51.468;6.762;2024-03-22T10:21:03;13.50;70.20
20492;DHT22;10404;51.468;6.762;2024-03-22T10:23:30;13.60;69.80
20492;DHT22;10404;51.468;6.762;2024-03-22T10:25:59;13.60;69.80
20492;DHT22;10404;51.468;6.762;2024-03-22T10:28:26;13.70;69.70
20492;DHT22;10404;51.468;6.762;2024-03-22T10:30:52;13.70;69.50
20492;DHT22;10404;51.468;6.762;2024-03-22T10:33:19;13.70;69.20
20492;DHT22;10404;51.468;6.762;2024-03-22T10:35:46;13.70;69.70
20492;DHT22;10404;51.468;6.762;2024-03-22T10:38:16;13.80;69.70
20492;DHT22;10404;51.468;6.762;2024-03-22T10:40:45;13.90;69.60
20492;DHT22;10404;51.468;6.762;2024-03-22T10:43:12;13.90;69.60
20492;DHT22;10404;51.468;6.762;2024-03-22T10:45:38;13.90;69.50
20492;DHT22;10404;51.468;6.762;2024-03-22T10:48:10;13.90;69.50
20492;DHT22;10404;51.468;6.762;2024-03-22T10:50:40;14.00;69.20
20492;DHT22;10404;51.468;6.762;2024-03-22T10:53:11;14.10;69.50
20492;DHT22;10404;51.468;6.762;2024-03-22T10:55:42;14.10;69.20
20492;DHT22;10404;51.468;6.762;2024-03-22T10:58:18;14.10;69.00
20492;DHT22;10404;51.468;6.762;2024-03-22T11:00:44;14.20;68.90
20492;DHT22;10404;51.468;6.762;2024-03-22T11:03:10;14.30;68.70
20492;DHT22;10404;51.468;6.762;2024-03-22T11:05:45;14.30;68.70
20492;DHT22;10404;51.468;6.762;2024-03-22T11:08:11;14.30;68.90
20492;DHT22;10404;51.468;6.762;2024-03-22T11:10:37;14.40;68.70
20492;DHT22;10404;51.468;6.762;2024-03-22T11:13:03;14.40;68.70
20492;DHT22;10404;51.468;6.762;2024-03-22T11:15:30;14.50;68.60
20492;DHT22;10404;51.468;6.762;2024-03-22T11:17:56;14.50;68.40
20492;DHT22;10404;51.468;6.762;2024-03-22T11:20:22;14.60;68.40
20492;DHT22;10404;51.468;6.762;2024-03-22T11:22:47;14.50;68.20
20492;DHT22;10404;51.468;6.762;2024-03-22T11:25:13;14.50;68.10
20492;DHT22;10404;51.468;6.762;2024-03-22T11:27:38;14.60;68.30
20492;DHT22;10404;51.468;6.762;2024-03-22T11:30:04;14.60;68.40
20492;DHT22;10404;51.468;6.762;2024-03-22T11:32:30;14.60;68.40
20492;DHT22;10404;51.468;6.762;2024-03-22T11:34:57;14.60;68.20
20492;DHT22;10404;51.468;6.762;2024-03-22T11:37:22;14.60;68.00
20492;DHT22;10404;51.468;6.762;2024-03-22T11:39:48;14.60;67.70
20492;DHT22;10404;51.468;6.762;2024-03-22T11:42:15;14.60;67.80
20492;DHT22;10404;51.468;6.762;2024-03-22T11:44:42;14.60;68.00
20492;DHT22;10404;51.468;6.762;2024-03-22T11:47:08;14.60;68.00
20492;DHT22;10404;51.468;6.762;2024-03-22T11:49:37;14.60;68.00
20492;DHT22;10404;51.468;6.762;2024-03-22T11:52:02;14.60;68.00
20492;DHT22;10404;51.468;6.762;2024-03-22T11:54:28;14.60;67.80
20492;DHT22;10404;51.468;6.762;2024-03-22T11:56:57;14.60;67.60
20492;DHT22;10404;51.468;6.762;2024-03-22T11:59:25;14.60;67.80
20492;DHT22;10404;51.468;6.762;2024-03-22T12:01:50;14.60;67.90
20492;DHT22;10404;51.468;6.762;2024-03-22T12:04:16;14.60;67.80
20492;DHT22;10404;51.468;6.762;2024-03-22T12:06:45;14.60;67.80
20492;DHT22;10404;51.468;6.762;2024-03-22T12:09:11;14.60;67.60
20492;DHT22;10404;51.468;6.762;2024-03-22T12:11:40;14.60;67.50
20492;DHT22;10404;51.468;6.762;2024-03-22T12:14:06;14.50;67.50
20492;DHT22;10404;51.468;6.762;2024-03-22T12:16:31;14.50;67.30
20492;DHT22;10404;51.468;6.762;2024-03-22T12:18:57;14.50;67.60
20492;DHT22;10404;51.468;6.762;2024-03-22T12:21:24;14.50;67.60
20492;DHT22;10404;51.468;6.762;2024-03-22T12:23:50;14.50;67.50
20492;DHT22;10404;51.468;6.762;2024-03-22T12:26:15;14.50;67.60
20492;DHT22;10404;51.468;6.762;2024-03-22T12:28:41;14.50;67.50
20492;DHT22;10404;51.468;6.762;2024-03-22T12:31:08;14.50;67.60
20492;DHT22;10404;51.468;6.762;2024-03-22T12:33:34;14.50;67.40
20492;DHT22;10404;51.468;6.762;2024-03-22T12:36:00;14.50;67.70
20492;DHT22;10404;51.468;6.762;2024-03-22T12:38:25;14.50;67.60
20492;DHT22;10404;51.468;6.762;2024-03-22T12:40:51;14.40;67.80
20492;DHT22;10404;51.468;6.762;2024-03-22T12:43:17;14.40;67.90
20492;DHT22;10404;51.468;6.762;2024-03-22T12:45:42;14.40;67.80
20492;DHT22;10404;51.468;6.762;2024-03-22T12:48:08;14.40;67.90
20492;DHT22;10404;51.468;6.762;2024-03-22T12:50:34;14.40;67.90
20492;DHT22;10404;51.468;6.762;2024-03-22T12:53:00;14.30;67.90
20492;DHT22;10404;51.468;6.762;2024-03-22T12:55:26;14.30;67.90
20492;DHT22;10404;51.468;6.762;2024-03-22T12:57:54;14.30;68.00
20492;DHT22;10404;51.468;6.762;2024-03-22T13:00:19;14.30;67.90
20492;DHT22;10404;51.468;6.762;2024-03-22T13:02:45;14.30;67.80
20492;DHT22;10404;51.468;6.762;2024-03-22T13:05:12;14.30;67.90
20492;DHT22;10404;51.468;6.762;2024-03-22T13:07:37;14.30;68.00
20492;DHT22;10404;51.468;6.762;2024-03-22T13:10:04;14.20;68.00
20492;DHT22;10404;51.468;6.762;2024-03-22T13:12:29;14.20;67.90
20492;DHT22;10404;51.468;6.762;2024-03-22T13:15:00;14.20;68.00
20492;DHT22;10404;51.468;6.762;2024-03-22T13:17:26;14.20;68.10
20492;DHT22;10404;51.468;6.762;2024-03-22T13:19:52;14.20;68.10
20492;DHT22;10404;51.468;6.762;2024-03-22T13:22:18;14.20;68.10
20492;DHT22;10404;51.468;6.762;2024-03-22T13:24:47;14.20;68.00
20492;DHT22;10404;51.468;6.762;2024-03-22T13:27:13;14.10;68.20
20492;DHT22;10404;51.468;6.762;2024-03-22T13:29:39;14.20;68.00
20492;DHT22;10404;51.468;6.762;2024-03-22T13:32:05;14.10;68.00
20492;DHT22;10404;51.468;6.762;2024-03-22T13:34:36;14.10;68.10
20492;DHT22;10404;51.468;6.762;2024-03-22T13:37:02;14.10;67.90
20492;DHT22;10404;51.468;6.762;2024-03-22T13:39:27;14.10;68.00
20492;DHT22;10404;51.468;6.762;2024-03-22T13:41:57;14.10;67.90
20492;DHT22;10404;51.468;6.762;2024-03-22T13:44:23;14.10;67.90
20492;DHT22;10404;51.468;6.762;2024-03-22T13:46:52;14.00;67.90
20492;DHT22;10404;51.468;6.762;2024-03-22T13:49:19;14.00;68.00
20492;DHT22;10404;51.468;6.762;2024-03-22T13:51:46;14.00;68.00
20492;DHT22;10404;51.468;6.762;2024-03-22T13:54:12;14.00;68.00
20492;DHT22;10404;51.468;6.762;2024-03-22T13:56:38;14.00;68.00
20492;DHT22;10404;51.468;6.762;2024-03-22T13:59:04;14.00;68.10
20492;DHT22;10404;51.468;6.762;2024-03-22T14:01:36;13.90;68.10
20492;DHT22;10404;51.468;6.762;2024-03-22T14:04:05;13.90;68.10
20492;DHT22;10404;51.468;6.762;2024-03-22T14:06:31;13.90;68.10
20492;DHT22;10404;51.468;6.762;2024-03-22T14:08:58;13.90;68.20
20492;DHT22;10404;51.468;6.762;2024-03-22T14:11:27;13.90;68.20
20492;DHT22;10404;51.468;6.762;2024-03-22T14:13:53;13.90;68.30
20492;DHT22;10404;51.468;6.762;2024-03-22T14:16:19;13.90;68.20
20492;DHT22;10404;51.468;6.762;2024-03-22T14:18:44;13.90;68.20
20492;DHT22;10404;51.468;6.762;2024-03-22T14:21:10;13.90;68.20
20492;DHT22;10404;51.468;6.762;2024-03-22T14:23:39;13.90;68.20
20492;DHT22;10404;51.468;6.762;2024-03-22T14:26:05;13.80;68.20
20492;DHT22;10404;51.468;6.762;2024-03-22T14:28:30;13.70;68.30
20492;DHT22;10404;51.468;6.762;2024-03-22T14:30:56;13.70;68.20
20492;DHT22;10404;51.468;6.762;2024-03-22T14:33:21;13.70;68.40
20492;DHT22;10404;51.468;6.762;2024-03-22T14:35:47;13.70;68.40
20492;DHT22;10404;51.468;6.762;2024-03-22T14:38:13;13.70;68.50
20492;DHT22;10404;51.468;6.762;2024-03-22T14:40:39;13.70;68.50
20492;DHT22;10404;51.468;6.762;2024-03-22T14:43:05;13.70;68.50
20492;DHT22;10404;51.468;6.762;2024-03-22T14:45:30;13.60;68.50
20492;DHT22;10404;51.468;6.762;2024-03-22T14:47:56;13.60;68.60
20492;DHT22;10404;51.468;6.762;2024-03-22T14:50:22;13.60;68.60
20492;DHT22;10404;51.468;6.762;2024-03-22T14:52:49;13.60;68.70
20492;DHT22;10404;51.468;6.762;2024-03-22T14:55:15;13.50;68.70
20492;DHT22;10404;51.468;6.762;2024-03-22T14:57:41;13.50;68.80
20492;DHT22;10404;51.468;6.762;2024-03-22T15:00:06;13.50;68.80
20492;DHT22;10404;51.468;6.762;2024-03-22T15:02:36;13.50;68.90
20492;DHT22;10404;51.468;6.762;2024-03-22T15:05:02;13.50;68.90
20492;DHT22;10404;51.468;6.762;2024-03-22T15:07:29;13.50;68.90
20492;DHT22;10404;51.468;6.762;2024-03-22T15:09:55;13.40;69.00
20492;DHT22;10404;51.468;6.762;2024-03-22T15:12:20;13.40;69.10
20492;DHT22;10404;51.468;6.762;2024-03-22T15:14:46;13.40;69.20
20492;DHT22;10404;51.468;6.762;2024-03-22T15:17:12;13.40;69.20
20492;DHT22;10404;51.468;6.762;2024-03-22T15:19:37;13.30;69.20
20492;DHT22;10404;51.468;6.762;2024-03-22T15:22:03;13.30;69.30